sensor_id;sensor_type;location;lat;lon;timestamp;pressure;altitude;pressure_sealevel;temperature;humidity
61961;BME280;47923;42.506;24.192;2022-07-12T00:00:35;95791.72;;;11.28;57.64
61961;BME280;47923;42.506;24.192;2022-07-12T00:03:00;95739.31;;;10.98;57.98
61961;BME280;47923;42.506;24.192;2022-07-12T00:05:26;95825.06;;;11.52;57.67
61961;BME280;47923;42.506;24.192;2022-07-12T00:07:51;95841.81;;;11.57;58.09
61961;BME280;47923;42.506;24.192;2022-07-12T00:10:17;95703.28;;;10.74;57.72
61961;BME280;47923;42.506;24.192;2022-07-12T00:12:42;95917.44;;;12.24;57.10
61961;BME280;47923;42.506;24.192;2022-07-12T00:15:08;95642.72;;;10.40;56.88
61961;BME280;47923;42.506;24.192;2022-07-12T00:17:35;95826.25;;;11.70;56.96
61961;BME280;47923;42.506;24.192;2022-07-12T00:20:00;95829.69;;;11.86;57.01
61961;BME280;47923;42.506;24.192;2022-07-12T00:22:26;95877.34;;;12.10;56.79
61961;BME280;47923;42.506;24.192;2022-07-12T00:24:54;95802.78;;;11.58;56.92
61961;BME280;47923;42.506;24.192;2022-07-12T00:27:19;95872.25;;;11.89;56.60
61961;BME280;47923;42.506;24.192;2022-07-12T00:29:45;95912.13;;;12.28;56.66
61961;BME280;47923;42.506;24.192;2022-07-12T00:32:10;95756.66;;;11.32;56.09
61961;BME280;47923;42.506;24.192;2022-07-12T00:34:36;95448.41;;;9.23;56.30
61961;BME280;47923;42.506;24.192;2022-07-12T00:37:01;95786.78;;;11.50;56.56
61961;BME280;47923;42.506;24.192;2022-07-12T00:39:27;95854.91;;;11.91;56.42
61961;BME280;47923;42.506;24.192;2022-07-12T00:41:53;95806.59;;;11.54;56.61
61961;BME280;47923;42.506;24.192;2022-07-12T00:44:18;95891.22;;;12.09;56.30
61961;BME280;47923;42.506;24.192;2022-07-12T00:46:45;95914.38;;;12.26;56.86
61961;BME280;47923;42.506;24.192;2022-07-12T00:49:12;95820.81;;;11.70;56.40
61961;BME280;47923;42.506;24.192;2022-07-12T00:51:44;95847.94;;;11.74;55.93
61961;BME280;47923;42.506;24.192;2022-07-12T00:54:10;95853.13;;;11.98;56.15
61961;BME280;47923;42.506;24.192;2022-07-12T00:56:36;95807.16;;;11.63;56.31
61961;BME280;47923;42.506;24.192;2022-07-12T00:59:02;95868.28;;;12.03;55.95
61961;BME280;47923;42.506;24.192;2022-07-12T01:01:28;95912.53;;;12.30;56.63
61961;BME280;47923;42.506;24.192;2022-07-12T01:03:54;95844.00;;;11.87;56.68
61961;BME280;47923;42.506;24.192;2022-07-12T01:06:21;95666.00;;;10.64;56.69
61961;BME280;47923;42.506;24.192;2022-07-12T01:08:47;95799.47;;;11.46;56.55
61961;BME280;47923;42.506;24.192;2022-07-12T01:11:14;95856.44;;;11.72;56.77
61961;BME280;47923;42.506;24.192;2022-07-12T01:13:40;95918.69;;;12.07;57.30
61961;BME280;47923;42.506;24.192;2022-07-12T01:16:08;95726.78;;;10.90;57.28
61961;BME280;47923;42.506;24.192;2022-07-12T01:18:35;95854.91;;;11.75;57.41
61961;BME280;47923;42.506;24.192;2022-07-12T01:21:06;95731.78;;;10.88;57.46
61961;BME280;47923;42.506;24.192;2022-07-12T01:23:33;95824.34;;;11.35;57.86
61961;BME280;47923;42.506;24.192;2022-07-12T01:26:00;95804.22;;;11.33;57.30
61961;BME280;47923;42.506;24.192;2022-07-12T01:28:26;95873.34;;;11.85;57.05
61961;BME280;47923;42.506;24.192;2022-07-12T01:30:52;95819.44;;;11.41;57.50
61961;BME280;47923;42.506;24.192;2022-07-12T01:33:18;95855.44;;;11.61;58.02
61961;BME280;47923;42.506;24.192;2022-07-12T01:35:46;95644.53;;;10.20;58.03
61961;BME280;47923;42.506;24.192;2022-07-12T01:38:12;95856.34;;;11.49;58.00
61961;BME280;47923;42.506;24.192;2022-07-12T01:40:38;95921.00;;;11.89;57.63
61961;BME280;47923;42.506;24.192;2022-07-12T01:43:05;95905.56;;;11.90;58.43
61961;BME280;47923;42.506;24.192;2022-07-12T01:45:31;95723.19;;;10.66;57.69
61961;BME280;47923;42.506;24.192;2022-07-12T01:47:57;95846.53;;;11.60;57.16
61961;BME280;47923;42.506;24.192;2022-07-12T01:50:25;95917.16;;;12.10;57.17
61961;BME280;47923;42.506;24.192;2022-07-12T01:52:51;95844.25;;;11.62;57.53
61961;BME280;47923;42.506;24.192;2022-07-12T01:55:17;95808.00;;;11.48;57.00
61961;BME280;47923;42.506;24.192;2022-07-12T01:57:43;95851.50;;;11.58;57.48
61961;BME280;47923;42.506;24.192;2022-07-12T02:00:11;95784.97;;;11.38;56.92
61961;BME280;47923;42.506;24.192;2022-07-12T02:02:37;95785.44;;;11.40;56.87
61961;BME280;47923;42.506;24.192;2022-07-12T02:05:03;95835.97;;;11.55;56.04
61961;BME280;47923;42.506;24.192;2022-07-12T02:07:30;95923.47;;;12.14;56.37
61961;BME280;47923;42.506;24.192;2022-07-12T02:09:56;95807.78;;;11.56;56.99
61961;BME280;47923;42.506;24.192;2022-07-12T02:12:22;95896.78;;;12.16;56.85
61961;BME280;47923;42.506;24.192;2022-07-12T02:14:49;95600.13;;;10.34;56.65
61961;BME280;47923;42.506;24.192;2022-07-12T02:17:14;95745.09;;;11.16;56.50
61961;BME280;47923;42.506;24.192;2022-07-12T02:19:40;95841.69;;;11.70;56.93
61961;BME280;47923;42.506;24.192;2022-07-12T02:22:06;95831.72;;;11.74;56.83
61961;BME280;47923;42.506;24.192;2022-07-12T02:24:31;95814.47;;;11.62;56.60
61961;BME280;47923;42.506;24.192;2022-07-12T02:26:57;95842.00;;;11.84;56.50
61961;BME280;47923;42.506;24.192;2022-07-12T02:29:22;95887.97;;;12.00;56.33
61961;BME280;47923;42.506;24.192;2022-07-12T02:31:48;95855.22;;;11.70;56.57
61961;BME280;47923;42.506;24.192;2022-07-12T02:34:13;95768.91;;;11.26;56.54
61961;BME280;47923;42.506;24.192;2022-07-12T02:36:38;95783.25;;;11.30;56.40
61961;BME280;47923;42.506;24.192;2022-07-12T02:39:04;95875.84;;;11.94;56.27
61961;BME280;47923;42.506;24.192;2022-07-12T02:41:33;95801.34;;;11.45;56.67
61961;BME280;47923;42.506;24.192;2022-07-12T02:43:59;95826.50;;;11.65;56.78
61961;BME280;47923;42.506;24.192;2022-07-12T02:46:24;95814.34;;;11.55;55.98
61961;BME280;47923;42.506;24.192;2022-07-12T02:48:51;95827.44;;;11.53;56.14
61961;BME280;47923;42.506;24.192;2022-07-12T02:51:17;95747.22;;;11.06;56.29
61961;BME280;47923;42.506;24.192;2022-07-12T02:53:43;95836.34;;;11.73;56.02
61961;BME280;47923;42.506;24.192;2022-07-12T02:56:09;95917.72;;;12.19;56.55
61961;BME280;47923;42.506;24.192;2022-07-12T02:58:35;95782.25;;;11.38;55.57
61961;BME280;47923;42.506;24.192;2022-07-12T03:01:02;95804.88;;;11.46;56.00
61961;BME280;47923;42.506;24.192;2022-07-12T03:03:27;95855.00;;;11.78;56.09
61961;BME280;47923;42.506;24.192;2022-07-12T03:05:53;95916.63;;;12.20;55.71
61961;BME280;47923;42.506;24.192;2022-07-12T03:08:19;95893.69;;;11.79;55.86
61961;BME280;47923;42.506;24.192;2022-07-12T03:10:45;95850.16;;;11.68;56.03
61961;BME280;47923;42.506;24.192;2022-07-12T03:13:10;95936.41;;;12.24;56.05
61961;BME280;47923;42.506;24.192;2022-07-12T03:15:36;95932.16;;;12.23;55.89
61961;BME280;47923;42.506;24.192;2022-07-12T03:18:02;95802.50;;;11.44;56.11
61961;BME280;47923;42.506;24.192;2022-07-12T03:20:31;95932.78;;;12.36;55.74
61961;BME280;47923;42.506;24.192;2022-07-12T03:22:57;95936.28;;;12.36;55.44
61961;BME280;47923;42.506;24.192;2022-07-12T03:25:23;95923.56;;;12.40;55.57
61961;BME280;47923;42.506;24.192;2022-07-12T03:27:49;95939.31;;;12.54;54.84
61961;BME280;47923;42.506;24.192;2022-07-12T03:30:15;95942.94;;;12.62;55.02
61961;BME280;47923;42.506;24.192;2022-07-12T03:32:40;95930.00;;;12.75;54.34
61961;BME280;47923;42.506;24.192;2022-07-12T03:35:06;95476.06;;;9.86;53.87
61961;BME280;47923;42.506;24.192;2022-07-12T03:40:13;95688.72;;;11.37;53.50
61961;BME280;47923;42.506;24.192;2022-07-12T03:42:39;95900.06;;;12.90;52.54
61961;BME280;47923;42.506;24.192;2022-07-12T03:45:05;95824.91;;;12.64;52.27
61961;BME280;47923;42.506;24.192;2022-07-12T03:47:32;95965.63;;;14.21;50.54
61961;BME280;47923;42.506;24.192;2022-07-12T03:49:57;95790.13;;;15.71;43.83
61961;BME280;47923;42.506;24.192;2022-07-12T03:52:23;95777.25;;;18.00;38.40
61961;BME280;47923;42.506;24.192;2022-07-12T03:54:48;95864.34;;;20.74;34.86
61961;BME280;47923;42.506;24.192;2022-07-12T03:57:14;95923.66;;;22.75;31.42
61961;BME280;47923;42.506;24.192;2022-07-12T03:59:40;95878.63;;;23.01;29.75
61961;BME280;47923;42.506;24.192;2022-07-12T04:02:06;95750.72;;;22.86;28.96
61961;BME280;47923;42.506;24.192;2022-07-12T04:04:31;95835.81;;;24.20;27.63
61961;BME280;47923;42.506;24.192;2022-07-12T04:06:57;95641.38;;;23.28;27.03
61961;BME280;47923;42.506;24.192;2022-07-12T04:09:23;95923.22;;;25.83;26.00
61961;BME280;47923;42.506;24.192;2022-07-12T04:11:48;95893.94;;;26.29;25.17
61961;BME280;47923;42.506;24.192;2022-07-12T04:14:15;95796.81;;;26.77;23.40
61961;BME280;47923;42.506;24.192;2022-07-12T04:16:40;95882.19;;;27.71;22.81
61961;BME280;47923;42.506;24.192;2022-07-12T04:19:06;95855.50;;;27.24;23.05
61961;BME280;47923;42.506;24.192;2022-07-12T04:21:34;95865.81;;;27.83;22.54
61961;BME280;47923;42.506;24.192;2022-07-12T04:24:00;95833.22;;;27.46;22.43
61961;BME280;47923;42.506;24.192;2022-07-12T04:26:26;95940.81;;;28.83;21.43
61961;BME280;47923;42.506;24.192;2022-07-12T04:28:51;95892.47;;;29.32;21.09
61961;BME280;47923;42.506;24.192;2022-07-12T04:31:16;95789.88;;;29.88;19.82
61961;BME280;47923;42.506;24.192;2022-07-12T04:33:42;95675.28;;;28.88;19.65
61961;BME280;47923;42.506;24.192;2022-07-12T04:36:07;95914.75;;;30.13;19.50
61961;BME280;47923;42.506;24.192;2022-07-12T04:38:33;95681.75;;;29.57;18.76
61961;BME280;47923;42.506;24.192;2022-07-12T04:40:59;95903.13;;;30.68;18.82
61961;BME280;47923;42.506;24.192;2022-07-12T04:43:24;95939.69;;;31.15;18.44
61961;BME280;47923;42.506;24.192;2022-07-12T04:45:50;95759.22;;;30.12;18.47
61961;BME280;47923;42.506;24.192;2022-07-12T04:48:16;95886.59;;;29.87;19.18
61961;BME280;47923;42.506;24.192;2022-07-12T04:50:41;95858.38;;;29.94;19.49
61961;BME280;47923;42.506;24.192;2022-07-12T04:53:07;95866.28;;;30.49;19.34
61961;BME280;47923;42.506;24.192;2022-07-12T04:55:33;95928.53;;;32.20;17.64
61961;BME280;47923;42.506;24.192;2022-07-12T04:57:58;95875.44;;;32.40;17.27
61961;BME280;47923;42.506;24.192;2022-07-12T05:00:24;95875.22;;;32.70;16.59
61961;BME280;47923;42.506;24.192;2022-07-12T05:02:49;95844.44;;;31.77;17.07
61961;BME280;47923;42.506;24.192;2022-07-12T05:05:15;95950.66;;;32.64;17.24
61961;BME280;47923;42.506;24.192;2022-07-12T05:07:41;95736.09;;;31.61;16.86
61961;BME280;47923;42.506;24.192;2022-07-12T05:10:07;95893.97;;;32.90;16.86
61961;BME280;47923;42.506;24.192;2022-07-12T05:12:36;95878.47;;;32.63;16.90
61961;BME280;47923;42.506;24.192;2022-07-12T05:15:04;95810.47;;;32.51;16.65
61961;BME280;47923;42.506;24.192;2022-07-12T05:17:30;95830.28;;;33.96;15.44
61961;BME280;47923;42.506;24.192;2022-07-12T05:19:55;95752.50;;;33.20;15.72
61961;BME280;47923;42.506;24.192;2022-07-12T05:22:21;95898.66;;;34.21;15.75
61961;BME280;47923;42.506;24.192;2022-07-12T05:24:47;95862.75;;;34.31;15.25
61961;BME280;47923;42.506;24.192;2022-07-12T05:27:12;95886.34;;;35.01;14.82
61961;BME280;47923;42.506;24.192;2022-07-12T05:29:38;95956.81;;;35.36;14.83
61961;BME280;47923;42.506;24.192;2022-07-12T05:32:03;95827.63;;;34.41;15.03
61961;BME280;47923;42.506;24.192;2022-07-12T05:34:30;95865.44;;;35.13;15.06
61961;BME280;47923;42.506;24.192;2022-07-12T05:36:56;95913.88;;;35.92;14.15
61961;BME280;47923;42.506;24.192;2022-07-12T05:39:21;95945.84;;;36.58;13.92
61961;BME280;47923;42.506;24.192;2022-07-12T05:41:47;95890.53;;;36.66;13.73
61961;BME280;47923;42.506;24.192;2022-07-12T05:44:13;95840.38;;;36.23;13.70
61961;BME280;47923;42.506;24.192;2022-07-12T05:46:38;95954.75;;;37.45;13.14
61961;BME280;47923;42.506;24.192;2022-07-12T05:49:06;95896.88;;;36.20;13.89
61961;BME280;47923;42.506;24.192;2022-07-12T05:51:32;95902.63;;;35.92;14.06
61961;BME280;47923;42.506;24.192;2022-07-12T05:54:15;95912.59;;;35.93;14.11
61961;BME280;47923;42.506;24.192;2022-07-12T05:56:41;95878.41;;;34.71;14.45
61961;BME280;47923;42.506;24.192;2022-07-12T05:59:06;95913.66;;;35.34;14.87
61961;BME280;47923;42.506;24.192;2022-07-12T06:01:32;95917.44;;;34.86;14.96
61961;BME280;47923;42.506;24.192;2022-07-12T06:03:57;95922.91;;;36.37;14.42
61961;BME280;47923;42.506;24.192;2022-07-12T06:06:23;95854.16;;;36.74;13.37
61961;BME280;47923;42.506;24.192;2022-07-12T06:08:48;95953.22;;;38.23;12.46
61961;BME280;47923;42.506;24.192;2022-07-12T06:11:14;95895.19;;;39.35;11.72
61961;BME280;47923;42.506;24.192;2022-07-12T06:13:39;95935.63;;;39.75;11.32
61961;BME280;47923;42.506;24.192;2022-07-12T06:16:05;95909.66;;;38.18;12.35
61961;BME280;47923;42.506;24.192;2022-07-12T06:18:34;95830.19;;;36.97;13.11
61961;BME280;47923;42.506;24.192;2022-07-12T06:20:59;95872.78;;;37.67;13.00
61961;BME280;47923;42.506;24.192;2022-07-12T06:23:25;95873.91;;;39.34;12.30
61961;BME280;47923;42.506;24.192;2022-07-12T06:25:51;95944.13;;;39.88;11.58
61961;BME280;47923;42.506;24.192;2022-07-12T06:28:17;95945.03;;;40.23;11.38
61961;BME280;47923;42.506;24.192;2022-07-12T06:30:42;95871.81;;;40.19;11.11
61961;BME280;47923;42.506;24.192;2022-07-12T06:33:08;95947.44;;;41.68;10.58
61961;BME280;47923;42.506;24.192;2022-07-12T06:35:33;95899.19;;;40.24;11.11
61961;BME280;47923;42.506;24.192;2022-07-12T06:37:59;95933.16;;;39.39;11.64
61961;BME280;47923;42.506;24.192;2022-07-12T06:40:25;95869.00;;;38.51;11.95
61961;BME280;47923;42.506;24.192;2022-07-12T06:42:50;95896.00;;;37.24;12.76
61961;BME280;47923;42.506;24.192;2022-07-12T06:45:16;95935.91;;;37.88;12.54
61961;BME280;47923;42.506;24.192;2022-07-12T06:47:42;95912.69;;;38.01;12.54
61961;BME280;47923;42.506;24.192;2022-07-12T06:50:07;95916.34;;;37.96;12.34
61961;BME280;47923;42.506;24.192;2022-07-12T06:52:33;95926.19;;;38.52;12.05
61961;BME280;47923;42.506;24.192;2022-07-12T06:54:59;95927.91;;;39.30;11.55
61961;BME280;47923;42.506;24.192;2022-07-12T06:57:25;95884.25;;;39.12;11.65
61961;BME280;47923;42.506;24.192;2022-07-12T06:59:52;95858.69;;;39.05;11.63
61961;BME280;47923;42.506;24.192;2022-07-12T07:02:17;95833.75;;;39.22;11.13
61961;BME280;47923;42.506;24.192;2022-07-12T07:04:43;95902.03;;;39.71;11.49
61961;BME280;47923;42.506;24.192;2022-07-12T07:07:08;95906.34;;;39.14;11.57
61961;BME280;47923;42.506;24.192;2022-07-12T07:09:34;95759.69;;;39.69;10.48
61961;BME280;47923;42.506;24.192;2022-07-12T07:12:00;95855.50;;;40.94;10.77
61961;BME280;47923;42.506;24.192;2022-07-12T07:14:26;95957.06;;;39.70;11.32
61961;BME280;47923;42.506;24.192;2022-07-12T07:16:55;95804.31;;;38.72;11.39
61961;BME280;47923;42.506;24.192;2022-07-12T07:19:21;95287.91;;;35.62;11.54
61961;BME280;47923;42.506;24.192;2022-07-12T07:21:51;95873.66;;;40.98;10.57
61961;BME280;47923;42.506;24.192;2022-07-12T07:24:17;95857.41;;;41.90;10.29
61961;BME280;47923;42.506;24.192;2022-07-12T07:26:42;95934.56;;;41.67;10.00
61961;BME280;47923;42.506;24.192;2022-07-12T07:29:08;95843.28;;;40.65;10.66
61961;BME280;47923;42.506;24.192;2022-07-12T07:31:52;95943.78;;;41.60;10.06
61961;BME280;47923;42.506;24.192;2022-07-12T07:34:17;95912.28;;;39.42;11.73
61961;BME280;47923;42.506;24.192;2022-07-12T07:36:43;95861.13;;;39.86;11.02
61961;BME280;47923;42.506;24.192;2022-07-12T07:39:08;95942.59;;;41.35;10.54
61961;BME280;47923;42.506;24.192;2022-07-12T07:41:34;95927.97;;;41.44;10.24
61961;BME280;47923;42.506;24.192;2022-07-12T07:43:59;95896.53;;;40.66;11.19
61961;BME280;47923;42.506;24.192;2022-07-12T07:46:25;95884.59;;;41.15;10.68
61961;BME280;47923;42.506;24.192;2022-07-12T07:48:51;95878.78;;;42.27;9.48
61961;BME280;47923;42.506;24.192;2022-07-12T07:51:16;95922.44;;;42.96;9.99
61961;BME280;47923;42.506;24.192;2022-07-12T07:53:42;95914.16;;;42.18;9.87
61961;BME280;47923;42.506;24.192;2022-07-12T07:56:07;95786.00;;;40.24;10.83
61961;BME280;47923;42.506;24.192;2022-07-12T07:58:33;95825.22;;;40.20;10.85
61961;BME280;47923;42.506;24.192;2022-07-12T08:00:58;95925.19;;;41.73;9.27
61961;BME280;47923;42.506;24.192;2022-07-12T08:03:24;95873.81;;;40.93;10.12
61961;BME280;47923;42.506;24.192;2022-07-12T08:05:50;95911.88;;;42.17;9.29
61961;BME280;47923;42.506;24.192;2022-07-12T08:08:17;95823.88;;;41.52;9.13
61961;BME280;47923;42.506;24.192;2022-07-12T08:10:42;95885.69;;;42.98;9.58
61961;BME280;47923;42.506;24.192;2022-07-12T08:13:08;95844.16;;;42.80;9.08
61961;BME280;47923;42.506;24.192;2022-07-12T08:15:34;95741.81;;;41.47;9.61
61961;BME280;47923;42.506;24.192;2022-07-12T08:18:00;95859.13;;;40.81;10.25
61961;BME280;47923;42.506;24.192;2022-07-12T08:20:25;95914.53;;;38.61;11.99
61961;BME280;47923;42.506;24.192;2022-07-12T08:22:51;95827.28;;;35.68;13.90
61961;BME280;47923;42.506;24.192;2022-07-12T08:25:16;95912.38;;;33.34;15.95
61961;BME280;47923;42.506;24.192;2022-07-12T08:27:42;95805.69;;;31.85;17.24
61961;BME280;47923;42.506;24.192;2022-07-12T08:30:08;95841.84;;;31.74;17.59
61961;BME280;47923;42.506;24.192;2022-07-12T08:32:34;95930.03;;;31.45;17.64
61961;BME280;47923;42.506;24.192;2022-07-12T08:34:59;95852.75;;;31.92;17.11
61961;BME280;47923;42.506;24.192;2022-07-12T08:37:25;95836.56;;;35.35;14.14
61961;BME280;47923;42.506;24.192;2022-07-12T08:39:50;95878.97;;;37.11;12.28
61961;BME280;47923;42.506;24.192;2022-07-12T08:42:16;95900.31;;;39.04;11.52
61961;BME280;47923;42.506;24.192;2022-07-12T08:44:44;95900.44;;;39.44;10.79
61961;BME280;47923;42.506;24.192;2022-07-12T08:47:10;95901.97;;;40.98;9.66
61961;BME280;47923;42.506;24.192;2022-07-12T08:49:36;95797.22;;;37.90;11.13
61961;BME280;47923;42.506;24.192;2022-07-12T08:52:26;95898.00;;;35.94;13.31
61961;BME280;47923;42.506;24.192;2022-07-12T08:54:52;95902.97;;;36.82;13.14
61961;BME280;47923;42.506;24.192;2022-07-12T08:57:31;95893.66;;;34.48;14.97
61961;BME280;47923;42.506;24.192;2022-07-12T09:00:00;95779.47;;;33.77;15.39
61961;BME280;47923;42.506;24.192;2022-07-12T09:02:27;95695.63;;;32.60;15.49
61961;BME280;47923;42.506;24.192;2022-07-12T09:05:08;95800.34;;;32.07;15.55
61961;BME280;47923;42.506;24.192;2022-07-12T09:07:35;95863.38;;;31.88;16.64
61961;BME280;47923;42.506;24.192;2022-07-12T09:10:06;95876.31;;;33.41;15.65
61961;BME280;47923;42.506;24.192;2022-07-12T09:12:36;95897.31;;;35.32;13.71
61961;BME280;47923;42.506;24.192;2022-07-12T09:15:15;95887.91;;;36.27;13.32
61961;BME280;47923;42.506;24.192;2022-07-12T09:20:24;95825.56;;;37.54;11.47
61961;BME280;47923;42.506;24.192;2022-07-12T09:22:55;95898.75;;;37.36;12.13
61961;BME280;47923;42.506;24.192;2022-07-12T09:25:21;95677.94;;;34.22;12.94
61961;BME280;47923;42.506;24.192;2022-07-12T09:27:51;95912.38;;;34.14;14.36
61961;BME280;47923;42.506;24.192;2022-07-12T09:30:17;95883.31;;;32.94;15.32
61961;BME280;47923;42.506;24.192;2022-07-12T09:33:03;95836.81;;;32.44;15.74
61961;BME280;47923;42.506;24.192;2022-07-12T09:41:17;95815.31;;;33.19;15.91
61961;BME280;47923;42.506;24.192;2022-07-12T09:43:44;95663.16;;;31.53;16.25
61961;BME280;47923;42.506;24.192;2022-07-12T09:46:10;95816.53;;;33.98;14.38
61961;BME280;47923;42.506;24.192;2022-07-12T09:48:36;95801.97;;;36.73;12.38
61961;BME280;47923;42.506;24.192;2022-07-12T09:51:03;95581.97;;;37.12;10.97
61961;BME280;47923;42.506;24.192;2022-07-12T09:53:42;95810.13;;;39.38;10.04
61961;BME280;47923;42.506;24.192;2022-07-12T09:56:10;95839.47;;;40.01;9.65
61961;BME280;47923;42.506;24.192;2022-07-12T09:58:51;95824.97;;;39.26;10.18
61961;BME280;47923;42.506;24.192;2022-07-12T10:01:21;95695.34;;;38.63;10.41
61961;BME280;47923;42.506;24.192;2022-07-12T10:03:49;95835.50;;;38.23;11.11
61961;BME280;47923;42.506;24.192;2022-07-12T10:06:25;95848.25;;;36.31;12.69
61961;BME280;47923;42.506;24.192;2022-07-12T10:08:51;95887.38;;;35.42;13.21
61961;BME280;47923;42.506;24.192;2022-07-12T10:11:18;95838.59;;;34.73;13.76
61961;BME280;47923;42.506;24.192;2022-07-12T10:13:45;95626.97;;;35.79;12.79
61961;BME280;47923;42.506;24.192;2022-07-12T10:16:13;95810.97;;;36.24;13.07
61961;BME280;47923;42.506;24.192;2022-07-12T10:18:39;95891.38;;;35.92;13.75
61961;BME280;47923;42.506;24.192;2022-07-12T10:21:19;95797.25;;;36.04;12.82
61961;BME280;47923;42.506;24.192;2022-07-12T10:23:47;95866.16;;;39.21;11.15
61961;BME280;47923;42.506;24.192;2022-07-12T10:31:33;95830.09;;;35.74;13.47
61961;BME280;47923;42.506;24.192;2022-07-12T10:39:28;95859.75;;;32.49;16.17
61961;BME280;47923;42.506;24.192;2022-07-12T10:44:36;95786.41;;;30.46;17.94
61961;BME280;47923;42.506;24.192;2022-07-12T10:47:04;95709.38;;;30.14;18.16
61961;BME280;47923;42.506;24.192;2022-07-12T10:49:31;95662.47;;;29.68;17.67
61961;BME280;47923;42.506;24.192;2022-07-12T10:54:42;95839.78;;;30.69;18.11
61961;BME280;47923;42.506;24.192;2022-07-12T10:57:08;95751.25;;;29.66;17.85
61961;BME280;47923;42.506;24.192;2022-07-12T10:59:35;95722.97;;;29.20;18.77
61961;BME280;47923;42.506;24.192;2022-07-12T11:02:02;95794.59;;;29.34;18.44
61961;BME280;47923;42.506;24.192;2022-07-12T11:04:29;95805.72;;;29.10;19.32
61961;BME280;47923;42.506;24.192;2022-07-12T11:06:55;95749.84;;;28.56;19.32
61961;BME280;47923;42.506;24.192;2022-07-12T11:09:23;95836.41;;;29.49;18.54
61961;BME280;47923;42.506;24.192;2022-07-12T11:11:51;95868.72;;;30.18;18.34
61961;BME280;47923;42.506;24.192;2022-07-12T11:14:29;95828.09;;;29.87;18.33
61961;BME280;47923;42.506;24.192;2022-07-12T11:16:55;95780.84;;;28.73;18.79
61961;BME280;47923;42.506;24.192;2022-07-12T11:19:25;95845.28;;;28.53;19.59
61961;BME280;47923;42.506;24.192;2022-07-12T11:21:51;95793.03;;;28.15;20.04
61961;BME280;47923;42.506;24.192;2022-07-12T11:24:28;95861.69;;;28.33;20.83
61961;BME280;47923;42.506;24.192;2022-07-12T11:26:54;95662.91;;;26.98;20.91
61961;BME280;47923;42.506;24.192;2022-07-12T11:29:22;95751.41;;;27.33;21.15
61961;BME280;47923;42.506;24.192;2022-07-12T11:31:48;95724.00;;;26.85;20.78
61961;BME280;47923;42.506;24.192;2022-07-12T11:36:46;95821.66;;;26.89;22.30
61961;BME280;47923;42.506;24.192;2022-07-12T11:39:12;95776.47;;;26.39;22.15
61961;BME280;47923;42.506;24.192;2022-07-12T11:41:37;95631.72;;;25.33;22.54
61961;BME280;47923;42.506;24.192;2022-07-12T11:44:03;95646.00;;;25.31;22.16
61961;BME280;47923;42.506;24.192;2022-07-12T11:46:29;95756.22;;;25.77;22.59
61961;BME280;47923;42.506;24.192;2022-07-12T11:48:55;95782.28;;;26.10;22.87
61961;BME280;47923;42.506;24.192;2022-07-12T11:51:20;95637.44;;;25.60;22.60
61961;BME280;47923;42.506;24.192;2022-07-12T11:53:52;95626.41;;;25.92;22.08
61961;BME280;47923;42.506;24.192;2022-07-12T11:56:29;95788.78;;;26.69;22.29
61961;BME280;47923;42.506;24.192;2022-07-12T11:58:56;95758.75;;;26.68;22.47
61961;BME280;47923;42.506;24.192;2022-07-12T12:01:22;95720.88;;;26.65;21.57
61961;BME280;47923;42.506;24.192;2022-07-12T12:03:47;95568.28;;;25.60;22.03
61961;BME280;47923;42.506;24.192;2022-07-12T12:06:14;95473.22;;;24.83;22.63
61961;BME280;47923;42.506;24.192;2022-07-12T12:08:40;95725.44;;;26.99;22.35
61961;BME280;47923;42.506;24.192;2022-07-12T12:11:06;95838.94;;;27.52;22.04
61961;BME280;47923;42.506;24.192;2022-07-12T12:13:32;95827.31;;;27.17;22.08
61961;BME280;47923;42.506;24.192;2022-07-12T12:16:00;95830.47;;;26.97;22.63
61961;BME280;47923;42.506;24.192;2022-07-12T12:21:03;95308.91;;;23.09;23.55
61961;BME280;47923;42.506;24.192;2022-07-12T12:23:29;95676.63;;;25.37;24.00
61961;BME280;47923;42.506;24.192;2022-07-12T12:26:15;95838.53;;;26.29;23.94
61961;BME280;47923;42.506;24.192;2022-07-12T12:28:47;95825.00;;;26.00;23.90
61961;BME280;47923;42.506;24.192;2022-07-12T12:31:14;95751.56;;;25.17;24.57
61961;BME280;47923;42.506;24.192;2022-07-12T12:33:43;95782.00;;;25.39;23.64
61961;BME280;47923;42.506;24.192;2022-07-12T12:38:40;95798.53;;;25.30;23.78
61961;BME280;47923;42.506;24.192;2022-07-12T12:41:07;95818.91;;;25.11;25.09
61961;BME280;47923;42.506;24.192;2022-07-12T12:43:33;95789.50;;;24.78;25.84
61961;BME280;47923;42.506;24.192;2022-07-12T12:45:59;95714.91;;;24.27;25.29
61961;BME280;47923;42.506;24.192;2022-07-12T12:48:26;95700.66;;;23.91;25.83
61961;BME280;47923;42.506;24.192;2022-07-12T12:50:54;95833.81;;;24.75;26.27
61961;BME280;47923;42.506;24.192;2022-07-12T12:53:21;95773.06;;;24.62;25.50
61961;BME280;47923;42.506;24.192;2022-07-12T12:55:49;95811.94;;;24.93;25.14
61961;BME280;47923;42.506;24.192;2022-07-12T12:58:16;95823.44;;;25.04;25.53
61961;BME280;47923;42.506;24.192;2022-07-12T13:00:43;95820.09;;;24.97;25.17
61961;BME280;47923;42.506;24.192;2022-07-12T13:03:11;95818.22;;;24.94;25.40
61961;BME280;47923;42.506;24.192;2022-07-12T13:05:37;95588.59;;;23.55;24.73
61961;BME280;47923;42.506;24.192;2022-07-12T13:08:04;95823.56;;;25.14;24.72
61961;BME280;47923;42.506;24.192;2022-07-12T13:10:31;95629.25;;;24.06;25.16
61961;BME280;47923;42.506;24.192;2022-07-12T13:12:57;95715.81;;;24.50;24.71
61961;BME280;47923;42.506;24.192;2022-07-12T13:15:27;95779.22;;;24.92;24.97
61961;BME280;47923;42.506;24.192;2022-07-12T13:17:53;95668.97;;;24.21;25.00
61961;BME280;47923;42.506;24.192;2022-07-12T13:20:19;95687.13;;;24.47;25.36
61961;BME280;47923;42.506;24.192;2022-07-12T13:22:44;95752.22;;;24.96;24.90